createdAt,value
2023-03-05T00:02:07.702Z,28.24
2023-03-05T00:04:34.878Z,26.70
2023-03-05T00:07:02.239Z,26.23
2023-03-05T00:09:29.477Z,26.81
2023-03-05T00:11:56.756Z,25.69
2023-03-05T00:14:25.417Z,26.78
2023-03-05T00:16:52.575Z,25.33
2023-03-05T00:19:19.714Z,24.52
2023-03-05T00:21:46.954Z,24.82
2023-03-05T00:24:16.446Z,23.48
2023-03-05T00:26:44.804Z,25.32
2023-03-05T00:29:15.942Z,24.96
2023-03-05T00:31:45.197Z,25.52
2023-03-05T00:34:15.497Z,25.57
2023-03-05T00:36:44.832Z,25.42
2023-03-05T00:39:13.261Z,24.51
2023-03-05T00:41:40.689Z,24.58
2023-03-05T00:44:08.019Z,24.75
2023-03-05T00:46:36.209Z,25.71
2023-03-05T00:49:05.123Z,27.36
2023-03-05T00:51:32.359Z,26.43
2023-03-05T00:53:59.638Z,23.82
2023-03-05T00:56:26.821Z,24.75
2023-03-05T00:58:54.119Z,25.46
2023-03-05T01:01:21.342Z,25.42
2023-03-05T01:03:48.987Z,25.44
2023-03-05T01:06:17.955Z,26.34
2023-03-05T01:08:45.779Z,25.26
2023-03-05T01:11:13.590Z,26.16
2023-03-05T01:13:40.865Z,25.25
2023-03-05T01:16:08.777Z,27.67
2023-03-05T01:18:38.058Z,27.63
2023-03-05T01:21:05.991Z,27.09
2023-03-05T01:23:34.607Z,24.71
2023-03-05T01:26:01.830Z,25.31
2023-03-05T01:28:29.152Z,24.97
2023-03-05T01:30:56.846Z,24.64
2023-03-05T01:33:24.069Z,25.30
2023-03-05T01:35:51.508Z,24.67
2023-03-05T01:38:18.751Z,24.27
2023-03-05T01:40:47.481Z,24.79
2023-03-05T01:43:24.552Z,24.72
2023-03-05T01:46:37.267Z,24.53
2023-03-05T01:49:15.968Z,25.43
2023-03-05T01:51:51.927Z,24.43
2023-03-05T01:54:25.048Z,25.72
2023-03-05T01:56:59.623Z,25.52
2023-03-05T01:59:27.983Z,26.09
2023-03-05T02:01:57.884Z,25.44
2023-03-05T02:04:34.281Z,26.04
2023-03-05T02:07:02.460Z,25.47
2023-03-05T02:09:29.640Z,25.57
2023-03-05T02:11:58.866Z,25.64
2023-03-05T02:14:27.183Z,26.25
2023-03-05T02:16:54.378Z,26.25
2023-03-05T02:19:21.665Z,25.42
2023-03-05T02:21:50.667Z,26.34
2023-03-05T02:24:33.687Z,24.87
2023-03-05T02:27:02.066Z,25.10
2023-03-05T02:29:31.844Z,24.98
2023-03-05T02:31:59.231Z,25.61
2023-03-05T02:34:26.581Z,25.37
2023-03-05T02:36:55.077Z,25.97
2023-03-05T02:39:22.398Z,24.98
2023-03-05T02:41:49.620Z,25.76
2023-03-05T02:44:16.717Z,25.78
2023-03-05T02:46:43.898Z,26.00
2023-03-05T02:49:11.062Z,25.70
2023-03-05T02:51:38.241Z,25.71
2023-03-05T02:54:07.307Z,25.88
2023-03-05T02:56:34.623Z,25.69
2023-03-05T02:59:01.810Z,26.39
2023-03-05T03:01:29.053Z,26.11
2023-03-05T03:03:56.629Z,27.10
2023-03-05T03:06:23.795Z,27.13
2023-03-05T03:08:50.929Z,27.04
2023-03-05T03:11:19.728Z,27.68
2023-03-05T03:13:46.891Z,28.10
2023-03-05T03:16:15.833Z,29.27
2023-03-05T03:18:43.275Z,28.87
2023-03-05T03:21:17.849Z,29.57
2023-03-05T03:23:45.072Z,30.62
2023-03-05T03:26:12.249Z,30.33
2023-03-05T03:28:40.871Z,31.96
2023-03-05T03:31:08.145Z,31.30
2023-03-05T03:33:35.376Z,32.34
2023-03-05T03:36:04.094Z,32.54
2023-03-05T03:38:31.336Z,32.63
2023-03-05T03:40:58.474Z,32.90
2023-03-05T03:43:25.638Z,33.74
2023-03-05T03:45:54.173Z,33.44
2023-03-05T03:48:21.358Z,33.29
2023-03-05T03:50:48.518Z,34.12
2023-03-05T03:53:15.657Z,34.03
2023-03-05T03:55:43.425Z,34.38
2023-03-05T03:58:11.098Z,34.30
2023-03-05T04:00:39.586Z,34.57
2023-03-05T04:03:08.357Z,34.49
2023-03-05T04:05:35.560Z,34.94
2023-03-05T04:08:02.960Z,35.90
2023-03-05T04:10:30.163Z,35.48
2023-03-05T04:12:57.306Z,34.65
2023-03-05T04:15:24.498Z,34.99
2023-03-05T04:17:51.598Z,34.81
2023-03-05T04:20:20.419Z,35.40
2023-03-05T04:22:48.177Z,35.61
2023-03-05T04:25:15.457Z,36.13
2023-03-05T04:27:42.678Z,36.71
2023-03-05T04:30:13.674Z,35.91
2023-03-05T04:32:41.243Z,35.29
2023-03-05T04:35:09.392Z,34.59
2023-03-05T04:37:38.509Z,35.40
2023-03-05T04:40:07.314Z,35.05
2023-03-05T04:42:34.533Z,34.98
2023-03-05T04:45:01.772Z,35.53
2023-03-05T04:47:28.870Z,37.68
2023-03-05T04:49:56.014Z,37.33
2023-03-05T04:52:23.227Z,37.52
2023-03-05T04:54:51.747Z,38.36
2023-03-05T04:57:18.931Z,37.79
2023-03-05T04:59:46.007Z,39.17
2023-03-05T05:02:13.170Z,37.88
2023-03-05T05:04:40.369Z,37.97
2023-03-05T05:07:07.602Z,38.95
2023-03-05T05:09:35.174Z,38.40
2023-03-05T05:12:04.418Z,38.78
2023-03-05T05:14:31.510Z,38.01
2023-03-05T05:16:58.790Z,38.06
2023-03-05T05:19:25.960Z,38.55
2023-03-05T05:21:53.187Z,38.72
2023-03-05T05:24:20.269Z,38.41
2023-03-05T05:26:47.435Z,36.86
2023-03-05T05:29:16.052Z,38.41
2023-03-05T05:31:43.218Z,37.52
2023-03-05T05:34:10.475Z,38.20
2023-03-05T05:36:37.620Z,38.16
2023-03-05T05:39:05.682Z,37.24
2023-03-05T05:41:32.929Z,38.34
2023-03-05T05:44:00.145Z,37.71
2023-03-05T05:46:28.719Z,38.08
2023-03-05T05:48:55.949Z,38.40
2023-03-05T05:51:24.117Z,39.12
2023-03-05T05:53:52.157Z,39.70
2023-03-05T05:56:19.587Z,39.70
2023-03-05T05:58:49.350Z,39.10
2023-03-05T06:01:19.672Z,38.85
2023-03-05T06:03:48.827Z,38.91
2023-03-05T06:06:18.848Z,39.76
2023-03-05T06:08:46.690Z,38.36
2023-03-05T06:11:14.418Z,39.18
2023-03-05T06:13:42.040Z,39.95
2023-03-05T06:16:15.717Z,39.38
2023-03-05T06:18:42.975Z,39.64
2023-03-05T06:21:14.097Z,40.13
2023-03-05T06:23:42.031Z,39.96
2023-03-05T06:26:10.735Z,40.05
2023-03-05T06:28:37.871Z,39.89
2023-03-05T06:31:07.595Z,40.46
2023-03-05T06:33:35.529Z,40.65
2023-03-05T06:36:04.854Z,41.54
2023-03-05T06:38:34.174Z,42.05
2023-03-05T06:41:02.495Z,41.22
2023-03-05T06:43:29.688Z,41.73
2023-03-05T06:46:02.753Z,41.59
2023-03-05T06:48:30.129Z,41.48
2023-03-05T06:50:57.694Z,41.60
2023-03-05T06:53:25.453Z,41.63
2023-03-05T06:55:54.932Z,42.02
2023-03-05T06:58:23.078Z,42.24
2023-03-05T07:00:50.274Z,41.63
2023-03-05T07:03:17.374Z,41.62
2023-03-05T07:05:44.755Z,41.56
2023-03-05T07:08:11.923Z,40.64
2023-03-05T07:10:40.794Z,40.82
2023-03-05T07:13:10.516Z,41.96
2023-03-05T07:15:40.579Z,40.81
2023-03-05T07:18:08.274Z,41.35
2023-03-05T07:20:36.580Z,41.03
2023-03-05T07:23:04.552Z,40.77
2023-03-05T07:25:32.574Z,41.08
2023-03-05T07:27:59.613Z,40.73
2023-03-05T07:30:28.212Z,40.35
2023-03-05T07:32:55.436Z,39.80
2023-03-05T07:35:22.725Z,40.20
2023-03-05T07:37:49.973Z,40.50
2023-03-05T07:40:18.232Z,41.49
2023-03-05T07:42:45.326Z,39.68
2023-03-05T07:45:12.586Z,39.39
2023-03-05T07:47:41.112Z,39.09
2023-03-05T07:50:09.878Z,39.15
2023-03-05T07:52:37.086Z,39.36
2023-03-05T07:55:05.287Z,40.19
2023-03-05T07:57:32.495Z,38.40
2023-03-05T07:59:59.627Z,39.68
2023-03-05T08:02:26.800Z,40.04
2023-03-05T08:04:55.412Z,39.42
2023-03-05T08:07:22.654Z,39.46
2023-03-05T08:09:49.811Z,39.46
2023-03-05T08:12:16.929Z,37.76
2023-03-05T08:14:44.128Z,38.51
2023-03-05T08:17:11.290Z,38.91
2023-03-05T08:19:38.471Z,37.76
2023-03-05T08:22:07.049Z,38.03
2023-03-05T08:24:34.246Z,38.15
2023-03-05T08:27:01.443Z,37.59
2023-03-05T08:29:28.527Z,37.52
2023-03-05T08:31:55.726Z,38.48
2023-03-05T08:34:22.947Z,38.10
2023-03-05T08:36:50.188Z,39.30
2023-03-05T08:39:19.146Z,37.92
2023-03-05T08:41:46.252Z,37.83
2023-03-05T08:44:13.733Z,38.48
2023-03-05T08:46:41.766Z,37.51
2023-03-05T08:49:10.092Z,37.51
2023-03-05T08:51:37.246Z,38.95
2023-03-05T08:54:04.526Z,37.18
2023-03-05T08:56:33.908Z,38.40
2023-03-05T08:59:01.372Z,27.45
2023-03-05T09:01:28.695Z,27.09
2023-03-05T09:03:55.972Z,26.97
2023-03-05T09:06:23.276Z,28.84
2023-03-05T09:08:50.470Z,28.84
2023-03-05T09:11:18.319Z,29.80
2023-03-05T09:13:46.970Z,33.81
2023-03-05T09:16:17.253Z,35.62
2023-03-05T09:18:45.239Z,30.69
2023-03-05T09:21:16.016Z,32.43
2023-03-05T09:23:44.508Z,35.80
2023-03-05T09:26:13.551Z,36.39
2023-03-05T09:28:41.535Z,36.14
2023-03-05T09:31:11.496Z,37.83
2023-03-05T09:33:40.016Z,37.47
2023-03-05T09:36:22.366Z,38.92
2023-03-05T09:38:50.324Z,36.43
2023-03-05T09:41:29.287Z,37.91
2023-03-05T09:44:11.267Z,39.37
2023-03-05T09:46:52.390Z,39.77
2023-03-05T09:49:32.477Z,40.41
2023-03-05T09:52:07.733Z,40.48
2023-03-05T09:54:42.127Z,39.95
2023-03-05T09:57:17.828Z,38.31
2023-03-05T09:59:51.005Z,39.12
2023-03-05T10:02:26.415Z,40.50
2023-03-05T10:05:00.222Z,38.46
2023-03-05T10:07:32.240Z,38.36
2023-03-05T10:10:02.309Z,39.54
2023-03-05T10:12:40.359Z,39.96
2023-03-05T10:15:12.984Z,39.84
2023-03-05T10:18:07.703Z,39.45
2023-03-05T10:20:57.647Z,39.59
2023-03-05T10:24:01.465Z,40.02
2023-03-05T10:26:52.632Z,40.10
2023-03-05T10:29:40.147Z,37.80
2023-03-05T10:32:22.620Z,37.99
2023-03-05T10:35:14.364Z,40.12
2023-03-05T10:38:21.718Z,40.67
2023-03-05T10:40:54.646Z,38.46
2023-03-05T10:43:34.560Z,38.56
2023-03-05T10:46:04.469Z,38.15
2023-03-05T10:48:41.265Z,36.88
2023-03-05T10:51:17.394Z,39.55
2023-03-05T10:53:54.918Z,39.29
2023-03-05T10:56:25.606Z,37.90
2023-03-05T10:58:53.871Z,39.56
2023-03-05T11:01:25.291Z,35.65
2023-03-05T11:03:56.983Z,37.42
2023-03-05T11:06:33.765Z,38.13
2023-03-05T11:09:19.589Z,39.00
2023-03-05T11:12:05.040Z,38.74
2023-03-05T11:14:33.387Z,38.62
2023-03-05T11:17:01.581Z,38.79
2023-03-05T11:19:31.051Z,39.45
2023-03-05T11:22:16.389Z,39.34
2023-03-05T11:24:44.160Z,40.14
2023-03-05T11:27:31.660Z,40.48
2023-03-05T11:29:59.520Z,40.13
2023-03-05T11:32:28.502Z,40.52
2023-03-05T11:34:56.641Z,40.02
2023-03-05T11:37:29.040Z,39.80
2023-03-05T11:40:18.400Z,38.93
2023-03-05T11:42:50.081Z,39.76
2023-03-05T11:45:19.482Z,39.09
2023-03-05T11:47:50.550Z,38.65
2023-03-05T11:50:23.664Z,39.97
2023-03-05T11:52:56.180Z,39.59
2023-03-05T11:55:30.830Z,39.12
2023-03-05T11:58:17.685Z,39.30
2023-03-05T12:00:47.299Z,38.70
2023-03-05T12:03:18.790Z,38.91
2023-03-05T12:05:51.353Z,39.17
2023-03-05T12:08:27.746Z,39.23
2023-03-05T12:10:56.116Z,37.47
2023-03-05T12:13:29.427Z,38.62
2023-03-05T12:16:09.874Z,39.00
2023-03-05T12:18:48.565Z,39.34
2023-03-05T12:21:26.788Z,39.77
2023-03-05T12:23:57.840Z,39.66
2023-03-05T12:27:06.593Z,38.72
2023-03-05T12:29:44.598Z,37.07
2023-03-05T12:32:57.458Z,38.01
2023-03-05T12:35:28.255Z,38.32
2023-03-05T12:38:28.193Z,36.57
2023-03-05T12:41:27.460Z,37.06
2023-03-05T12:44:17.234Z,38.20
2023-03-05T12:46:45.939Z,39.59
2023-03-05T12:49:29.296Z,39.67
2023-03-05T12:51:58.335Z,39.94
2023-03-05T12:54:31.759Z,37.23
2023-03-05T12:57:01.597Z,36.39
2023-03-05T12:59:42.489Z,35.91
2023-03-05T13:02:26.932Z,38.18
2023-03-05T13:05:00.340Z,33.31
2023-03-05T13:07:27.461Z,35.01
2023-03-05T13:09:56.963Z,35.69
2023-03-05T13:12:26.284Z,35.56
2023-03-05T13:15:03.112Z,37.53
2023-03-05T13:17:35.053Z,37.78
2023-03-05T13:20:23.833Z,35.71
2023-03-05T13:23:13.333Z,35.76
2023-03-05T13:25:40.551Z,38.34
2023-03-05T13:28:13.030Z,40.49
2023-03-05T13:30:46.051Z,39.83
2023-03-05T13:33:19.355Z,40.62
2023-03-05T13:35:47.300Z,39.96
2023-03-05T13:38:26.691Z,39.90
2023-03-05T13:41:21.648Z,40.39
2023-03-05T13:43:51.151Z,41.28
2023-03-05T13:46:28.289Z,40.13
2023-03-05T13:48:55.627Z,40.79
2023-03-05T13:51:22.869Z,40.93
2023-03-05T13:53:51.332Z,40.39
2023-03-05T13:56:20.789Z,41.79
2023-03-05T13:58:50.947Z,41.33
2023-03-05T14:01:32.112Z,40.43
2023-03-05T14:04:07.187Z,39.36
2023-03-05T14:06:42.614Z,41.01
2023-03-05T14:09:21.210Z,40.91
2023-03-05T14:12:01.804Z,42.34
2023-03-05T14:14:31.102Z,40.74
2023-03-05T14:17:30.877Z,40.35
2023-03-05T14:20:09.120Z,41.83
2023-03-05T14:22:39.022Z,41.67
2023-03-05T14:25:32.932Z,41.31
2023-03-05T14:28:01.769Z,36.92
2023-03-05T14:30:29.394Z,41.35
2023-03-05T14:33:00.724Z,40.08
2023-03-05T14:35:30.270Z,40.54
2023-03-05T14:37:59.805Z,40.83
2023-03-05T14:40:30.141Z,40.57
2023-03-05T14:42:58.626Z,41.10
2023-03-05T14:45:28.278Z,41.25
2023-03-05T14:48:00.280Z,41.96
2023-03-05T14:50:29.934Z,40.78
2023-03-05T14:53:00.416Z,40.46
2023-03-05T14:55:30.040Z,40.53
2023-03-05T14:58:02.121Z,40.86
2023-03-05T15:00:29.494Z,40.49
2023-03-05T15:02:58.454Z,41.09
2023-03-05T15:05:25.873Z,39.39
2023-03-05T15:07:53.515Z,40.57
2023-03-05T15:10:24.175Z,40.44
2023-03-05T15:12:52.712Z,41.18
2023-03-05T15:15:21.737Z,41.29
2023-03-05T15:17:51.034Z,40.80
2023-03-05T15:20:21.950Z,41.04
2023-03-05T15:22:49.173Z,40.89
2023-03-05T15:25:17.276Z,40.69
2023-03-05T15:27:45.329Z,41.32
2023-03-05T15:30:22.874Z,40.74
2023-03-05T15:32:50.250Z,41.32
2023-03-05T15:35:17.756Z,40.28
2023-03-05T15:37:46.665Z,41.26
2023-03-05T15:40:14.563Z,40.36
2023-03-05T15:42:41.986Z,41.32
2023-03-05T15:45:09.962Z,41.37
2023-03-05T15:47:37.411Z,41.19
2023-03-05T15:50:05.326Z,41.05
2023-03-05T15:52:32.673Z,40.40
2023-03-05T15:55:02.662Z,38.76
2023-03-05T15:57:29.837Z,41.03
2023-03-05T15:59:56.955Z,41.62
2023-03-05T16:02:24.100Z,40.74
2023-03-05T16:04:51.232Z,41.03
2023-03-05T16:07:19.322Z,41.09
2023-03-05T16:09:51.355Z,40.87
2023-03-05T16:12:26.278Z,41.05
2023-03-05T16:14:53.521Z,40.73
2023-03-05T16:17:23.977Z,41.70
2023-03-05T16:19:55.940Z,40.93
2023-03-05T16:22:23.240Z,40.96
2023-03-05T16:24:50.417Z,40.48
2023-03-05T16:27:19.041Z,40.77
2023-03-05T16:29:46.240Z,41.54
2023-03-05T16:32:13.442Z,40.73
2023-03-05T16:34:40.571Z,41.76
2023-03-05T16:37:07.717Z,85.31
2023-03-05T16:39:34.873Z,77.33
2023-03-05T16:42:02.127Z,47.20
2023-03-05T16:44:30.849Z,44.78
2023-03-05T16:46:58.119Z,42.03
2023-03-05T16:49:25.478Z,40.80
2023-03-05T16:51:52.596Z,40.90
2023-03-05T16:54:19.745Z,41.80
2023-03-05T16:56:46.856Z,42.24
2023-03-05T16:59:14.203Z,42.31
2023-03-05T17:01:42.920Z,42.16
2023-03-05T17:04:10.305Z,42.28
2023-03-05T17:06:37.917Z,43.09
2023-03-05T17:09:05.072Z,43.37
2023-03-05T17:11:32.372Z,45.36
2023-03-05T17:13:59.499Z,43.88
2023-03-05T17:16:26.691Z,44.39
2023-03-05T17:18:55.458Z,43.42
2023-03-05T17:21:22.798Z,43.88
2023-03-05T17:23:50.074Z,43.08
2023-03-05T17:26:19.259Z,43.44
2023-03-05T17:28:46.595Z,44.64
2023-03-05T17:31:14.781Z,45.18
2023-03-05T17:33:42.443Z,45.18
2023-03-05T17:36:16.340Z,52.95
2023-03-05T17:38:44.261Z,45.88
2023-03-05T17:41:12.336Z,46.00
2023-03-05T17:43:40.169Z,46.43
2023-03-05T17:46:07.928Z,45.18
2023-03-05T17:48:35.454Z,44.58
2023-03-05T17:51:02.634Z,43.63
2023-03-05T17:53:31.314Z,43.38
2023-03-05T17:55:58.537Z,45.90
2023-03-05T17:58:25.676Z,55.88
2023-03-05T18:00:52.996Z,66.33
2023-03-05T18:03:20.134Z,83.72
2023-03-05T18:05:47.357Z,91.73
2023-03-05T18:08:14.639Z,62.80
2023-03-05T18:10:43.275Z,55.61
2023-03-05T18:13:10.438Z,52.38
2023-03-05T18:15:37.982Z,51.06
2023-03-05T18:18:05.317Z,48.69
2023-03-05T18:20:35.676Z,48.33
2023-03-05T18:23:05.215Z,47.42
2023-03-05T18:25:32.844Z,46.96
2023-03-05T18:28:02.999Z,47.94
2023-03-05T18:30:30.888Z,47.05
2023-03-05T18:32:58.256Z,46.99
2023-03-05T18:35:26.011Z,47.00
2023-03-05T18:37:53.214Z,47.34
2023-03-05T18:40:22.754Z,47.20
2023-03-05T18:42:50.340Z,45.96
2023-03-05T18:45:21.794Z,45.75
2023-03-05T18:47:49.592Z,43.23
2023-03-05T18:50:18.073Z,44.32
2023-03-05T18:52:46.051Z,44.81
2023-03-05T18:55:16.159Z,44.18
2023-03-05T18:57:43.291Z,41.48
2023-03-05T19:00:14.352Z,41.54
2023-03-05T19:02:43.014Z,40.67
2023-03-05T19:05:12.118Z,40.06
2023-03-05T19:07:39.531Z,43.25
2023-03-05T19:10:10.395Z,48.53
2023-03-05T19:12:39.460Z,41.18
2023-03-05T19:15:07.714Z,42.73
2023-03-05T19:17:34.898Z,47.37
2023-03-05T19:20:04.615Z,54.87
2023-03-05T19:22:32.362Z,53.68
2023-03-05T19:24:59.719Z,48.83
2023-03-05T19:27:27.076Z,49.10
2023-03-05T19:29:54.399Z,47.46
2023-03-05T19:32:21.845Z,46.63
2023-03-05T19:34:49.716Z,44.88
2023-03-05T19:37:18.376Z,46.83
2023-03-05T19:39:45.511Z,47.62
2023-03-05T19:42:12.796Z,45.77
2023-03-05T19:44:39.953Z,42.71
2023-03-05T19:47:07.233Z,43.54
2023-03-05T19:49:34.391Z,42.85
2023-03-05T19:52:02.072Z,42.68
2023-03-05T19:54:30.870Z,42.45
2023-03-05T19:56:58.090Z,41.87
2023-03-05T19:59:26.130Z,42.33
2023-03-05T20:01:54.355Z,43.01
2023-03-05T20:04:23.049Z,41.54
2023-03-05T20:06:51.372Z,41.87
2023-03-05T20:09:19.165Z,41.79
2023-03-05T20:11:47.909Z,44.90
2023-03-05T20:14:15.300Z,43.22
2023-03-05T20:16:43.088Z,43.49
2023-03-05T20:19:16.717Z,43.31
2023-03-05T20:21:45.232Z,43.61
2023-03-05T20:24:14.502Z,43.35
2023-03-05T20:26:44.354Z,43.88
2023-03-05T20:29:17.305Z,42.75
2023-03-05T20:31:45.782Z,43.56
2023-03-05T20:34:16.138Z,43.30
2023-03-05T20:36:43.672Z,42.25
2023-03-05T20:39:11.137Z,43.76
2023-03-05T20:41:40.006Z,43.38
2023-03-05T20:44:08.717Z,42.20
2023-03-05T20:46:40.169Z,42.99
2023-03-05T20:49:07.538Z,43.37
2023-03-05T20:51:37.221Z,23.42
2023-03-05T20:54:07.434Z,32.56
2023-03-05T20:56:36.272Z,34.96
2023-03-05T20:59:06.057Z,35.29
2023-03-05T21:01:35.214Z,40.83
2023-03-05T21:04:04.648Z,40.91
2023-03-05T21:06:33.177Z,42.23
2023-03-05T21:09:01.191Z,41.57
2023-03-05T21:11:28.742Z,41.95
2023-03-05T21:13:56.100Z,41.63
2023-03-05T21:16:27.037Z,42.09
2023-03-05T21:18:55.142Z,42.07
2023-03-05T21:21:24.061Z,41.45
2023-03-05T21:23:51.339Z,41.29
2023-03-05T21:26:20.848Z,41.58
2023-03-05T21:28:48.440Z,43.06
2023-03-05T21:31:19.076Z,42.35
2023-03-05T21:33:50.378Z,43.09
2023-03-05T21:36:18.524Z,40.89
2023-03-05T21:38:48.199Z,40.42
2023-03-05T21:41:16.017Z,40.55
2023-03-05T21:43:43.325Z,40.49
2023-03-05T21:46:10.958Z,39.81
2023-03-05T21:48:38.456Z,40.04
2023-03-05T21:51:09.140Z,39.60
2023-03-05T21:53:36.637Z,40.20
2023-03-05T21:56:05.734Z,40.52
2023-03-05T21:58:34.752Z,39.76
2023-03-05T22:01:02.975Z,41.81
2023-03-05T22:03:30.801Z,42.27
2023-03-05T22:05:58.324Z,40.96
2023-03-05T22:08:25.590Z,41.57
2023-03-05T22:10:53.190Z,40.61
2023-03-05T22:13:21.928Z,41.06
2023-03-05T22:15:52.053Z,41.46
2023-03-05T22:18:22.150Z,41.34
2023-03-05T22:20:49.471Z,41.62
2023-03-05T22:23:18.090Z,41.42
2023-03-05T22:25:45.848Z,41.80
2023-03-05T22:28:13.928Z,41.82
2023-03-05T22:30:46.342Z,41.30
2023-03-05T22:33:14.029Z,41.10
2023-03-05T22:35:42.515Z,41.51
2023-03-05T22:38:11.373Z,41.28
2023-03-05T22:40:43.506Z,41.10
2023-03-05T22:43:11.692Z,40.19
2023-03-05T22:45:39.108Z,43.42
2023-03-05T22:48:08.386Z,43.49
2023-03-05T22:50:35.944Z,43.61
2023-03-05T22:53:03.673Z,41.36
2023-03-05T22:55:30.966Z,42.29
2023-03-05T22:57:58.104Z,42.41
2023-03-05T23:00:25.747Z,42.10
2023-03-05T23:02:53.993Z,42.89
2023-03-05T23:05:22.830Z,42.43
2023-03-05T23:07:50.076Z,42.99
2023-03-05T23:10:20.122Z,42.18
2023-03-05T23:12:49.342Z,41.91
2023-03-05T23:15:18.835Z,42.13
2023-03-05T23:17:46.210Z,41.62
2023-03-05T23:20:15.579Z,41.18
2023-03-05T23:22:45.383Z,40.66
2023-03-05T23:25:15.438Z,41.08
2023-03-05T23:27:43.130Z,40.66
2023-03-05T23:30:12.942Z,40.67
2023-03-05T23:32:40.159Z,40.72
2023-03-05T23:35:10.021Z,39.75
2023-03-05T23:37:37.178Z,40.15
2023-03-05T23:40:09.736Z,40.75
2023-03-05T23:42:37.394Z,40.39
2023-03-05T23:45:06.115Z,40.33
2023-03-05T23:47:35.711Z,41.48
2023-03-05T23:50:03.912Z,40.52
2023-03-05T23:52:31.130Z,40.47
2023-03-05T23:54:58.932Z,40.50
2023-03-05T23:57:27.633Z,39.68
2023-03-05T23:59:54.718Z,39.50
